sensor_id;sensor_type;location;lat;lon;timestamp;temperature;humidity
48488;DHT22;34289;48.572;13.378;2023-09-19T00:00:30;16.20;99.90
48488;DHT22;34289;48.572;13.378;2023-09-19T00:02:58;16.20;99.90
48488;DHT22;34289;48.572;13.378;2023-09-19T00:05:27;16.30;99.90
48488;DHT22;34289;48.572;13.378;2023-09-19T00:07:55;16.50;99.90
48488;DHT22;34289;48.572;13.378;2023-09-19T00:10:24;16.10;99.90
48488;DHT22;34289;48.572;13.378;2023-09-19T00:12:59;16.50;99.90
48488;DHT22;34289;48.572;13.378;2023-09-19T00:15:25;16.20;99.90
48488;DHT22;34289;48.572;13.378;2023-09-19T00:17:54;16.20;99.90
48488;DHT22;34289;48.572;13.378;2023-09-19T00:20:20;16.50;99.90
48488;DHT22;34289;48.572;13.378;2023-09-19T00:22:51;16.10;99.90
48488;DHT22;34289;48.572;13.378;2023-09-19T00:25:17;16.00;99.90
48488;DHT22;34289;48.572;13.378;2023-09-19T00:27:43;16.30;99.90
48488;DHT22;34289;48.572;13.378;2023-09-19T00:30:11;16.40;99.90
48488;DHT22;34289;48.572;13.378;2023-09-19T00:32:42;16.30;99.90
48488;DHT22;34289;48.572;13.378;2023-09-19T00:35:08;16.40;99.90
48488;DHT22;34289;48.572;13.378;2023-09-19T00:37:35;16.70;99.90
48488;DHT22;34289;48.572;13.378;2023-09-19T00:40:02;16.20;99.90
48488;DHT22;34289;48.572;13.378;2023-09-19T00:42:28;16.30;99.90
48488;DHT22;34289;48.572;13.378;2023-09-19T00:44:54;16.30;99.90
48488;DHT22;34289;48.572;13.378;2023-09-19T00:47:19;16.10;99.90
48488;DHT22;34289;48.572;13.378;2023-09-19T00:49:45;16.10;99.90
48488;DHT22;34289;48.572;13.378;2023-09-19T00:52:14;15.80;99.90
48488;DHT22;34289;48.572;13.378;2023-09-19T00:54:41;16.10;99.90
48488;DHT22;34289;48.572;13.378;2023-09-19T00:57:06;16.00;99.90
48488;DHT22;34289;48.572;13.378;2023-09-19T00:59:34;16.20;99.90
48488;DHT22;34289;48.572;13.378;2023-09-19T01:02:02;15.70;99.90
48488;DHT22;34289;48.572;13.378;2023-09-19T01:04:28;15.80;99.90
48488;DHT22;34289;48.572;13.378;2023-09-19T01:06:54;15.90;99.90
48488;DHT22;34289;48.572;13.378;2023-09-19T01:09:20;15.80;99.90
48488;DHT22;34289;48.572;13.378;2023-09-19T01:11:48;16.00;99.90
48488;DHT22;34289;48.572;13.378;2023-09-19T01:14:44;15.90;99.90
48488;DHT22;34289;48.572;13.378;2023-09-19T01:17:24;16.00;99.90
48488;DHT22;34289;48.572;13.378;2023-09-19T01:22:42;16.10;99.90
48488;DHT22;34289;48.572;13.378;2023-09-19T01:30:56;15.80;99.90
48488;DHT22;34289;48.572;13.378;2023-09-19T01:33:24;15.90;99.90
48488;DHT22;34289;48.572;13.378;2023-09-19T01:35:51;16.40;99.90
48488;DHT22;34289;48.572;13.378;2023-09-19T01:38:18;16.00;99.90
48488;DHT22;34289;48.572;13.378;2023-09-19T01:40:56;16.00;99.90
48488;DHT22;34289;48.572;13.378;2023-09-19T01:43:31;16.00;99.90
48488;DHT22;34289;48.572;13.378;2023-09-19T01:46:19;16.20;99.90
48488;DHT22;34289;48.572;13.378;2023-09-19T01:52:00;16.00;99.90
48488;DHT22;34289;48.572;13.378;2023-09-19T01:54:39;16.00;99.90
48488;DHT22;34289;48.572;13.378;2023-09-19T01:57:14;15.90;99.90
48488;DHT22;34289;48.572;13.378;2023-09-19T01:59:50;15.70;99.90
48488;DHT22;34289;48.572;13.378;2023-09-19T02:02:18;15.60;99.90
48488;DHT22;34289;48.572;13.378;2023-09-19T02:04:47;15.70;99.90
48488;DHT22;34289;48.572;13.378;2023-09-19T02:07:13;15.70;99.90
48488;DHT22;34289;48.572;13.378;2023-09-19T02:09:42;15.80;99.90
48488;DHT22;34289;48.572;13.378;2023-09-19T02:12:09;15.80;99.90
48488;DHT22;34289;48.572;13.378;2023-09-19T02:14:35;15.90;99.90
48488;DHT22;34289;48.572;13.378;2023-09-19T02:17:02;16.00;99.90
48488;DHT22;34289;48.572;13.378;2023-09-19T02:19:36;15.80;99.90
48488;DHT22;34289;48.572;13.378;2023-09-19T02:22:04;16.00;99.90
48488;DHT22;34289;48.572;13.378;2023-09-19T02:24:36;16.10;99.90
48488;DHT22;34289;48.572;13.378;2023-09-19T02:27:01;16.40;99.90
48488;DHT22;34289;48.572;13.378;2023-09-19T02:29:30;16.00;99.90
48488;DHT22;34289;48.572;13.378;2023-09-19T02:31:55;16.00;99.90
48488;DHT22;34289;48.572;13.378;2023-09-19T02:34:22;15.90;99.90
48488;DHT22;34289;48.572;13.378;2023-09-19T02:36:47;15.80;99.90
48488;DHT22;34289;48.572;13.378;2023-09-19T02:39:13;15.90;99.90
48488;DHT22;34289;48.572;13.378;2023-09-19T02:41:38;16.00;99.90
48488;DHT22;34289;48.572;13.378;2023-09-19T02:44:04;16.10;99.90
48488;DHT22;34289;48.572;13.378;2023-09-19T02:46:33;16.10;99.90
48488;DHT22;34289;48.572;13.378;2023-09-19T02:48:59;16.20;99.90
48488;DHT22;34289;48.572;13.378;2023-09-19T02:51:25;16.30;99.90
48488;DHT22;34289;48.572;13.378;2023-09-19T02:53:51;16.20;99.90
48488;DHT22;34289;48.572;13.378;2023-09-19T02:56:20;16.10;99.90
48488;DHT22;34289;48.572;13.378;2023-09-19T02:58:45;16.10;99.90
48488;DHT22;34289;48.572;13.378;2023-09-19T03:01:11;16.10;99.90
48488;DHT22;34289;48.572;13.378;2023-09-19T03:03:37;16.10;99.90
48488;DHT22;34289;48.572;13.378;2023-09-19T03:06:05;16.10;99.90
48488;DHT22;34289;48.572;13.378;2023-09-19T03:08:31;15.90;99.90
48488;DHT22;34289;48.572;13.378;2023-09-19T03:11:03;15.70;99.90
48488;DHT22;34289;48.572;13.378;2023-09-19T03:13:31;15.80;99.90
48488;DHT22;34289;48.572;13.378;2023-09-19T03:15:57;16.00;99.90
48488;DHT22;34289;48.572;13.378;2023-09-19T03:18:24;16.00;99.90
48488;DHT22;34289;48.572;13.378;2023-09-19T03:20:57;16.00;99.90
48488;DHT22;34289;48.572;13.378;2023-09-19T03:23:26;15.80;99.90
48488;DHT22;34289;48.572;13.378;2023-09-19T03:25:52;15.70;99.90
48488;DHT22;34289;48.572;13.378;2023-09-19T03:28:18;15.50;99.90
48488;DHT22;34289;48.572;13.378;2023-09-19T03:30:44;15.50;99.90
48488;DHT22;34289;48.572;13.378;2023-09-19T03:33:09;16.00;99.90
48488;DHT22;34289;48.572;13.378;2023-09-19T03:35:38;15.70;99.90
48488;DHT22;34289;48.572;13.378;2023-09-19T03:38:05;15.70;99.90
48488;DHT22;34289;48.572;13.378;2023-09-19T03:40:30;15.80;99.90
48488;DHT22;34289;48.572;13.378;2023-09-19T03:42:56;15.80;99.90
48488;DHT22;34289;48.572;13.378;2023-09-19T03:45:22;16.30;99.90
48488;DHT22;34289;48.572;13.378;2023-09-19T03:47:47;15.60;99.90
48488;DHT22;34289;48.572;13.378;2023-09-19T03:50:13;15.60;99.90
48488;DHT22;34289;48.572;13.378;2023-09-19T03:52:44;15.60;99.90
48488;DHT22;34289;48.572;13.378;2023-09-19T03:55:09;15.80;99.90
48488;DHT22;34289;48.572;13.378;2023-09-19T03:57:36;15.20;99.90
48488;DHT22;34289;48.572;13.378;2023-09-19T04:00:02;15.40;99.90
48488;DHT22;34289;48.572;13.378;2023-09-19T04:02:30;15.30;99.90
48488;DHT22;34289;48.572;13.378;2023-09-19T04:04:58;15.50;99.90
48488;DHT22;34289;48.572;13.378;2023-09-19T04:07:24;15.50;99.90
48488;DHT22;34289;48.572;13.378;2023-09-19T04:09:54;15.60;99.90
48488;DHT22;34289;48.572;13.378;2023-09-19T04:12:20;15.60;99.90
48488;DHT22;34289;48.572;13.378;2023-09-19T04:14:46;15.60;99.90
48488;DHT22;34289;48.572;13.378;2023-09-19T04:17:11;15.60;99.90
48488;DHT22;34289;48.572;13.378;2023-09-19T04:19:37;15.60;99.90
48488;DHT22;34289;48.572;13.378;2023-09-19T04:22:03;15.70;99.90
48488;DHT22;34289;48.572;13.378;2023-09-19T04:24:29;15.70;99.90
48488;DHT22;34289;48.572;13.378;2023-09-19T04:26:55;15.70;99.90
48488;DHT22;34289;48.572;13.378;2023-09-19T04:29:22;15.80;99.90
48488;DHT22;34289;48.572;13.378;2023-09-19T04:31:48;16.00;99.90
48488;DHT22;34289;48.572;13.378;2023-09-19T04:34:13;16.20;99.90
48488;DHT22;34289;48.572;13.378;2023-09-19T04:36:43;15.70;99.90
48488;DHT22;34289;48.572;13.378;2023-09-19T04:39:09;15.70;99.90
48488;DHT22;34289;48.572;13.378;2023-09-19T04:41:36;15.80;99.90
48488;DHT22;34289;48.572;13.378;2023-09-19T04:44:06;15.70;99.90
48488;DHT22;34289;48.572;13.378;2023-09-19T04:46:33;15.70;99.90
48488;DHT22;34289;48.572;13.378;2023-09-19T04:48:59;16.10;99.90
48488;DHT22;34289;48.572;13.378;2023-09-19T04:51:24;15.80;99.90
48488;DHT22;34289;48.572;13.378;2023-09-19T04:53:52;15.60;99.90
48488;DHT22;34289;48.572;13.378;2023-09-19T04:56:17;15.70;99.90
48488;DHT22;34289;48.572;13.378;2023-09-19T04:58:44;15.70;99.90
48488;DHT22;34289;48.572;13.378;2023-09-19T05:01:10;15.60;99.90
48488;DHT22;34289;48.572;13.378;2023-09-19T05:03:37;15.80;99.90
48488;DHT22;34289;48.572;13.378;2023-09-19T05:06:03;15.80;99.90
48488;DHT22;34289;48.572;13.378;2023-09-19T05:08:30;16.00;99.90
48488;DHT22;34289;48.572;13.378;2023-09-19T05:10:56;16.00;99.90
48488;DHT22;34289;48.572;13.378;2023-09-19T05:13:22;16.00;99.90
48488;DHT22;34289;48.572;13.378;2023-09-19T05:15:49;16.40;99.90
48488;DHT22;34289;48.572;13.378;2023-09-19T05:18:18;16.10;99.90
48488;DHT22;34289;48.572;13.378;2023-09-19T05:20:43;16.10;99.90
48488;DHT22;34289;48.572;13.378;2023-09-19T05:23:09;16.20;99.90
48488;DHT22;34289;48.572;13.378;2023-09-19T05:25:37;16.20;99.90
48488;DHT22;34289;48.572;13.378;2023-09-19T05:28:04;16.30;99.90
48488;DHT22;34289;48.572;13.378;2023-09-19T05:30:31;16.10;99.90
48488;DHT22;34289;48.572;13.378;2023-09-19T05:32:58;16.30;99.90
48488;DHT22;34289;48.572;13.378;2023-09-19T05:35:24;16.30;99.90
48488;DHT22;34289;48.572;13.378;2023-09-19T05:37:53;16.20;99.90
48488;DHT22;34289;48.572;13.378;2023-09-19T05:40:20;16.30;99.90
48488;DHT22;34289;48.572;13.378;2023-09-19T05:42:46;16.30;99.90
48488;DHT22;34289;48.572;13.378;2023-09-19T05:45:12;16.20;99.90
48488;DHT22;34289;48.572;13.378;2023-09-19T05:47:40;16.30;99.90
48488;DHT22;34289;48.572;13.378;2023-09-19T05:50:06;16.40;99.90
48488;DHT22;34289;48.572;13.378;2023-09-19T05:52:34;16.30;99.90
48488;DHT22;34289;48.572;13.378;2023-09-19T05:55:00;16.40;99.90
48488;DHT22;34289;48.572;13.378;2023-09-19T05:57:26;16.50;99.90
48488;DHT22;34289;48.572;13.378;2023-09-19T05:59:53;15.70;99.90
48488;DHT22;34289;48.572;13.378;2023-09-19T06:02:18;16.60;99.90
48488;DHT22;34289;48.572;13.378;2023-09-19T06:04:45;16.80;99.90
48488;DHT22;34289;48.572;13.378;2023-09-19T06:07:10;16.80;99.90
48488;DHT22;34289;48.572;13.378;2023-09-19T06:09:36;16.90;99.90
48488;DHT22;34289;48.572;13.378;2023-09-19T06:12:02;17.00;99.90
48488;DHT22;34289;48.572;13.378;2023-09-19T06:14:29;17.00;99.90
48488;DHT22;34289;48.572;13.378;2023-09-19T06:16:54;17.20;99.90
48488;DHT22;34289;48.572;13.378;2023-09-19T06:19:20;17.40;99.90
48488;DHT22;34289;48.572;13.378;2023-09-19T06:21:48;17.60;99.90
48488;DHT22;34289;48.572;13.378;2023-09-19T06:24:14;17.90;99.90
48488;DHT22;34289;48.572;13.378;2023-09-19T06:26:40;18.00;99.90
48488;DHT22;34289;48.572;13.378;2023-09-19T06:29:06;18.10;99.90
48488;DHT22;34289;48.572;13.378;2023-09-19T06:31:35;18.20;99.90
48488;DHT22;34289;48.572;13.378;2023-09-19T06:34:00;18.00;99.90
48488;DHT22;34289;48.572;13.378;2023-09-19T06:36:26;18.20;99.90
48488;DHT22;34289;48.572;13.378;2023-09-19T06:38:52;18.80;99.90
48488;DHT22;34289;48.572;13.378;2023-09-19T06:41:18;19.70;99.90
48488;DHT22;34289;48.572;13.378;2023-09-19T06:43:43;20.50;99.90
48488;DHT22;34289;48.572;13.378;2023-09-19T06:46:09;20.90;99.90
48488;DHT22;34289;48.572;13.378;2023-09-19T06:48:35;20.90;99.90
48488;DHT22;34289;48.572;13.378;2023-09-19T06:51:01;20.90;99.90
48488;DHT22;34289;48.572;13.378;2023-09-19T06:53:28;20.60;99.90
48488;DHT22;34289;48.572;13.378;2023-09-19T06:55:57;20.20;99.90
48488;DHT22;34289;48.572;13.378;2023-09-19T06:58:23;19.80;99.90
48488;DHT22;34289;48.572;13.378;2023-09-19T07:00:48;19.50;99.90
48488;DHT22;34289;48.572;13.378;2023-09-19T07:03:16;19.30;99.90
48488;DHT22;34289;48.572;13.378;2023-09-19T07:05:44;19.10;99.90
48488;DHT22;34289;48.572;13.378;2023-09-19T07:08:10;19.00;99.90
48488;DHT22;34289;48.572;13.378;2023-09-19T07:10:38;18.70;99.90
48488;DHT22;34289;48.572;13.378;2023-09-19T07:13:07;18.50;99.90
48488;DHT22;34289;48.572;13.378;2023-09-19T07:15:36;18.50;99.90
48488;DHT22;34289;48.572;13.378;2023-09-19T07:18:05;18.50;99.90
48488;DHT22;34289;48.572;13.378;2023-09-19T07:20:31;18.70;99.90
48488;DHT22;34289;48.572;13.378;2023-09-19T07:22:58;19.00;99.90
48488;DHT22;34289;48.572;13.378;2023-09-19T07:25:30;19.20;99.90
48488;DHT22;34289;48.572;13.378;2023-09-19T07:27:57;19.70;99.90
48488;DHT22;34289;48.572;13.378;2023-09-19T07:30:25;19.80;99.90
48488;DHT22;34289;48.572;13.378;2023-09-19T07:32:51;19.70;99.90
48488;DHT22;34289;48.572;13.378;2023-09-19T07:35:18;20.10;99.90
48488;DHT22;34289;48.572;13.378;2023-09-19T07:37:46;19.80;99.90
48488;DHT22;34289;48.572;13.378;2023-09-19T07:40:15;19.70;99.90
48488;DHT22;34289;48.572;13.378;2023-09-19T07:42:41;19.60;99.90
48488;DHT22;34289;48.572;13.378;2023-09-19T07:45:08;19.50;99.90
48488;DHT22;34289;48.572;13.378;2023-09-19T07:47:34;19.40;99.90
48488;DHT22;34289;48.572;13.378;2023-09-19T07:50:01;19.40;99.90
48488;DHT22;34289;48.572;13.378;2023-09-19T07:52:28;19.20;99.90
48488;DHT22;34289;48.572;13.378;2023-09-19T07:54:54;19.10;99.90
48488;DHT22;34289;48.572;13.378;2023-09-19T07:57:20;18.90;99.90
48488;DHT22;34289;48.572;13.378;2023-09-19T07:59:46;18.80;99.90
48488;DHT22;34289;48.572;13.378;2023-09-19T08:02:11;18.90;99.90
48488;DHT22;34289;48.572;13.378;2023-09-19T08:04:45;19.60;99.90
48488;DHT22;34289;48.572;13.378;2023-09-19T08:07:14;19.40;99.90
48488;DHT22;34289;48.572;13.378;2023-09-19T08:09:40;19.70;99.90
48488;DHT22;34289;48.572;13.378;2023-09-19T08:12:07;20.00;99.90
48488;DHT22;34289;48.572;13.378;2023-09-19T08:14:36;20.20;99.90
48488;DHT22;34289;48.572;13.378;2023-09-19T08:17:04;20.40;99.90
48488;DHT22;34289;48.572;13.378;2023-09-19T08:19:31;21.30;99.90
48488;DHT22;34289;48.572;13.378;2023-09-19T08:22:00;22.20;99.90
48488;DHT22;34289;48.572;13.378;2023-09-19T08:24:30;23.00;99.90
48488;DHT22;34289;48.572;13.378;2023-09-19T08:26:56;23.40;99.90
48488;DHT22;34289;48.572;13.378;2023-09-19T08:29:23;23.50;99.90
48488;DHT22;34289;48.572;13.378;2023-09-19T08:31:54;23.50;99.90
48488;DHT22;34289;48.572;13.378;2023-09-19T08:34:21;23.60;99.90
48488;DHT22;34289;48.572;13.378;2023-09-19T08:36:47;23.70;99.90
48488;DHT22;34289;48.572;13.378;2023-09-19T08:39:13;23.80;99.90
48488;DHT22;34289;48.572;13.378;2023-09-19T08:41:39;23.20;99.90
48488;DHT22;34289;48.572;13.378;2023-09-19T08:44:05;22.70;99.90
48488;DHT22;34289;48.572;13.378;2023-09-19T08:46:32;22.20;99.90
48488;DHT22;34289;48.572;13.378;2023-09-19T08:49:05;22.00;99.90
48488;DHT22;34289;48.572;13.378;2023-09-19T08:51:43;21.90;99.90
48488;DHT22;34289;48.572;13.378;2023-09-19T08:54:32;21.30;99.90
48488;DHT22;34289;48.572;13.378;2023-09-19T08:57:06;21.00;99.90
48488;DHT22;34289;48.572;13.378;2023-09-19T08:59:38;20.80;99.90
48488;DHT22;34289;48.572;13.378;2023-09-19T09:02:11;20.50;99.90
48488;DHT22;34289;48.572;13.378;2023-09-19T09:04:40;20.30;99.90
48488;DHT22;34289;48.572;13.378;2023-09-19T09:07:13;20.20;99.90
48488;DHT22;34289;48.572;13.378;2023-09-19T09:09:40;19.90;99.90
48488;DHT22;34289;48.572;13.378;2023-09-19T09:12:12;19.80;99.90
48488;DHT22;34289;48.572;13.378;2023-09-19T09:14:45;19.60;99.90
48488;DHT22;34289;48.572;13.378;2023-09-19T09:17:17;19.60;99.90
48488;DHT22;34289;48.572;13.378;2023-09-19T09:19:46;19.70;99.90
48488;DHT22;34289;48.572;13.378;2023-09-19T09:22:11;20.50;99.90
48488;DHT22;34289;48.572;13.378;2023-09-19T09:24:50;21.30;99.90
48488;DHT22;34289;48.572;13.378;2023-09-19T09:27:16;22.20;99.90
48488;DHT22;34289;48.572;13.378;2023-09-19T09:29:49;22.80;99.90
48488;DHT22;34289;48.572;13.378;2023-09-19T09:32:28;23.30;99.90
48488;DHT22;34289;48.572;13.378;2023-09-19T09:34:59;23.90;99.90
48488;DHT22;34289;48.572;13.378;2023-09-19T09:37:26;24.30;99.90
48488;DHT22;34289;48.572;13.378;2023-09-19T09:39:55;25.00;99.90
48488;DHT22;34289;48.572;13.378;2023-09-19T09:42:36;24.50;99.90
48488;DHT22;34289;48.572;13.378;2023-09-19T09:45:15;24.10;99.90
48488;DHT22;34289;48.572;13.378;2023-09-19T09:47:48;23.30;99.90
48488;DHT22;34289;48.572;13.378;2023-09-19T09:50:31;22.80;99.90
48488;DHT22;34289;48.572;13.378;2023-09-19T09:53:26;22.50;99.90
48488;DHT22;34289;48.572;13.378;2023-09-19T09:56:04;22.30;99.90
48488;DHT22;34289;48.572;13.378;2023-09-19T09:58:55;22.30;99.90
48488;DHT22;34289;48.572;13.378;2023-09-19T10:01:24;22.20;99.90
48488;DHT22;34289;48.572;13.378;2023-09-19T10:03:57;21.80;99.90
48488;DHT22;34289;48.572;13.378;2023-09-19T10:06:23;21.70;99.90
48488;DHT22;34289;48.572;13.378;2023-09-19T10:09:05;21.80;99.90
48488;DHT22;34289;48.572;13.378;2023-09-19T10:12:05;22.10;99.90
48488;DHT22;34289;48.572;13.378;2023-09-19T10:14:37;22.20;99.90
48488;DHT22;34289;48.572;13.378;2023-09-19T10:17:05;21.70;99.90
48488;DHT22;34289;48.572;13.378;2023-09-19T10:19:37;21.60;99.90
48488;DHT22;34289;48.572;13.378;2023-09-19T10:22:10;21.40;99.90
48488;DHT22;34289;48.572;13.378;2023-09-19T10:24:37;21.10;99.90
48488;DHT22;34289;48.572;13.378;2023-09-19T10:27:06;21.00;99.90
48488;DHT22;34289;48.572;13.378;2023-09-19T10:29:35;20.90;99.90
48488;DHT22;34289;48.572;13.378;2023-09-19T10:32:03;20.70;99.90
48488;DHT22;34289;48.572;13.378;2023-09-19T10:34:34;20.70;99.90
48488;DHT22;34289;48.572;13.378;2023-09-19T10:37:02;21.10;99.90
48488;DHT22;34289;48.572;13.378;2023-09-19T10:39:32;21.10;99.90
48488;DHT22;34289;48.572;13.378;2023-09-19T10:42:02;20.90;99.90
48488;DHT22;34289;48.572;13.378;2023-09-19T10:44:32;20.50;99.90
48488;DHT22;34289;48.572;13.378;2023-09-19T10:46:58;20.30;99.90
48488;DHT22;34289;48.572;13.378;2023-09-19T10:49:25;20.70;99.90
48488;DHT22;34289;48.572;13.378;2023-09-19T10:51:57;21.40;99.90
48488;DHT22;34289;48.572;13.378;2023-09-19T10:54:32;22.00;99.90
48488;DHT22;34289;48.572;13.378;2023-09-19T10:56:59;22.20;99.90
48488;DHT22;34289;48.572;13.378;2023-09-19T10:59:29;22.70;99.90
48488;DHT22;34289;48.572;13.378;2023-09-19T11:02:16;23.00;99.90
48488;DHT22;34289;48.572;13.378;2023-09-19T11:04:42;23.50;99.90
48488;DHT22;34289;48.572;13.378;2023-09-19T11:07:12;23.60;99.90
48488;DHT22;34289;48.572;13.378;2023-09-19T11:15:03;24.20;99.90
48488;DHT22;34289;48.572;13.378;2023-09-19T11:17:41;24.30;99.90
48488;DHT22;34289;48.572;13.378;2023-09-19T11:30:49;23.50;99.90
48488;DHT22;34289;48.572;13.378;2023-09-19T11:33:19;23.10;99.90
48488;DHT22;34289;48.572;13.378;2023-09-19T11:36:18;22.80;99.90
48488;DHT22;34289;48.572;13.378;2023-09-19T11:39:01;22.90;99.90
48488;DHT22;34289;48.572;13.378;2023-09-19T11:41:40;23.00;99.90
48488;DHT22;34289;48.572;13.378;2023-09-19T11:46:33;22.60;99.90
48488;DHT22;34289;48.572;13.378;2023-09-19T11:49:09;22.30;99.90
48488;DHT22;34289;48.572;13.378;2023-09-19T11:51:55;22.20;99.90
48488;DHT22;34289;48.572;13.378;2023-09-19T11:54:21;21.80;99.90
48488;DHT22;34289;48.572;13.378;2023-09-19T11:56:55;21.40;99.90
48488;DHT22;34289;48.572;13.378;2023-09-19T11:59:21;20.80;99.90
48488;DHT22;34289;48.572;13.378;2023-09-19T12:01:54;20.20;99.90
48488;DHT22;34289;48.572;13.378;2023-09-19T12:04:40;19.80;99.90
48488;DHT22;34289;48.572;13.378;2023-09-19T12:09:49;19.10;99.90
48488;DHT22;34289;48.572;13.378;2023-09-19T12:12:26;18.70;99.90
48488;DHT22;34289;48.572;13.378;2023-09-19T12:14:59;18.40;99.90
48488;DHT22;34289;48.572;13.378;2023-09-19T12:17:38;18.40;99.90
48488;DHT22;34289;48.572;13.378;2023-09-19T12:20:10;18.50;99.90
48488;DHT22;34289;48.572;13.378;2023-09-19T12:22:43;18.40;99.90
48488;DHT22;34289;48.572;13.378;2023-09-19T12:25:10;17.90;99.90
48488;DHT22;34289;48.572;13.378;2023-09-19T12:27:46;18.40;99.90
48488;DHT22;34289;48.572;13.378;2023-09-19T12:30:13;18.40;99.90
48488;DHT22;34289;48.572;13.378;2023-09-19T12:32:43;18.60;99.90
48488;DHT22;34289;48.572;13.378;2023-09-19T12:35:10;18.70;99.90
48488;DHT22;34289;48.572;13.378;2023-09-19T12:37:44;18.90;99.90
48488;DHT22;34289;48.572;13.378;2023-09-19T12:40:21;18.90;99.90
48488;DHT22;34289;48.572;13.378;2023-09-19T12:42:50;19.20;99.90
48488;DHT22;34289;48.572;13.378;2023-09-19T12:45:19;19.30;99.90
48488;DHT22;34289;48.572;13.378;2023-09-19T12:51:08;19.50;99.90
48488;DHT22;34289;48.572;13.378;2023-09-19T12:53:39;19.50;99.90
48488;DHT22;34289;48.572;13.378;2023-09-19T12:56:08;19.40;99.90
48488;DHT22;34289;48.572;13.378;2023-09-19T13:01:20;19.50;99.90
48488;DHT22;34289;48.572;13.378;2023-09-19T13:04:14;19.50;99.90
48488;DHT22;34289;48.572;13.378;2023-09-19T13:06:49;19.50;99.90
48488;DHT22;34289;48.572;13.378;2023-09-19T13:09:17;19.40;99.90
48488;DHT22;34289;48.572;13.378;2023-09-19T13:11:44;19.80;99.90
48488;DHT22;34289;48.572;13.378;2023-09-19T13:14:25;19.90;99.90
48488;DHT22;34289;48.572;13.378;2023-09-19T13:16:57;20.30;99.90
48488;DHT22;34289;48.572;13.378;2023-09-19T13:22:36;21.20;99.90
48488;DHT22;34289;48.572;13.378;2023-09-19T13:25:07;21.50;99.90
48488;DHT22;34289;48.572;13.378;2023-09-19T13:27:34;21.60;99.90
48488;DHT22;34289;48.572;13.378;2023-09-19T13:29:59;21.70;99.90
48488;DHT22;34289;48.572;13.378;2023-09-19T13:32:26;21.50;99.90
48488;DHT22;34289;48.572;13.378;2023-09-19T13:34:51;21.20;99.90
48488;DHT22;34289;48.572;13.378;2023-09-19T13:37:17;21.00;99.90
48488;DHT22;34289;48.572;13.378;2023-09-19T13:39:43;21.20;99.90
48488;DHT22;34289;48.572;13.378;2023-09-19T13:42:13;21.50;99.90
48488;DHT22;34289;48.572;13.378;2023-09-19T13:44:39;21.30;99.90
48488;DHT22;34289;48.572;13.378;2023-09-19T13:47:06;22.20;99.90
48488;DHT22;34289;48.572;13.378;2023-09-19T13:49:35;21.90;99.90
48488;DHT22;34289;48.572;13.378;2023-09-19T13:52:01;22.10;99.90
48488;DHT22;34289;48.572;13.378;2023-09-19T13:54:30;22.10;99.90
48488;DHT22;34289;48.572;13.378;2023-09-19T13:56:56;22.00;99.90
48488;DHT22;34289;48.572;13.378;2023-09-19T13:59:22;22.10;99.90
48488;DHT22;34289;48.572;13.378;2023-09-19T14:01:49;22.20;99.90
48488;DHT22;34289;48.572;13.378;2023-09-19T14:04:16;22.20;99.90
48488;DHT22;34289;48.572;13.378;2023-09-19T14:06:42;22.20;99.90
48488;DHT22;34289;48.572;13.378;2023-09-19T14:09:08;22.00;99.90
48488;DHT22;34289;48.572;13.378;2023-09-19T14:11:36;22.00;99.90
48488;DHT22;34289;48.572;13.378;2023-09-19T14:14:02;21.80;99.90
48488;DHT22;34289;48.572;13.378;2023-09-19T14:16:27;21.70;99.90
48488;DHT22;34289;48.572;13.378;2023-09-19T14:18:56;21.50;99.90
48488;DHT22;34289;48.572;13.378;2023-09-19T14:21:22;21.50;99.90
48488;DHT22;34289;48.572;13.378;2023-09-19T14:23:48;22.20;99.90
48488;DHT22;34289;48.572;13.378;2023-09-19T14:26:14;21.30;99.90
48488;DHT22;34289;48.572;13.378;2023-09-19T14:28:41;21.50;99.90
48488;DHT22;34289;48.572;13.378;2023-09-19T14:31:08;21.30;99.90
48488;DHT22;34289;48.572;13.378;2023-09-19T14:33:34;21.10;99.90
48488;DHT22;34289;48.572;13.378;2023-09-19T14:36:07;21.60;99.90
48488;DHT22;34289;48.572;13.378;2023-09-19T14:38:35;21.70;99.90
48488;DHT22;34289;48.572;13.378;2023-09-19T14:41:05;21.60;99.90
48488;DHT22;34289;48.572;13.378;2023-09-19T14:43:32;21.60;99.90
48488;DHT22;34289;48.572;13.378;2023-09-19T14:46:07;21.70;99.90
48488;DHT22;34289;48.572;13.378;2023-09-19T14:48:33;21.70;99.90
48488;DHT22;34289;48.572;13.378;2023-09-19T14:51:06;21.60;99.90
48488;DHT22;34289;48.572;13.378;2023-09-19T14:53:37;21.50;99.90
48488;DHT22;34289;48.572;13.378;2023-09-19T14:56:08;21.40;99.90
48488;DHT22;34289;48.572;13.378;2023-09-19T14:58:34;21.50;99.90
48488;DHT22;34289;48.572;13.378;2023-09-19T15:01:05;21.40;99.90
48488;DHT22;34289;48.572;13.378;2023-09-19T15:03:32;21.50;99.90
48488;DHT22;34289;48.572;13.378;2023-09-19T15:06:14;21.60;99.90
48488;DHT22;34289;48.572;13.378;2023-09-19T15:08:40;21.80;99.90
48488;DHT22;34289;48.572;13.378;2023-09-19T15:11:08;21.70;99.90
48488;DHT22;34289;48.572;13.378;2023-09-19T15:13:36;21.80;99.90
48488;DHT22;34289;48.572;13.378;2023-09-19T15:16:04;21.70;99.90
48488;DHT22;34289;48.572;13.378;2023-09-19T15:18:31;21.60;99.90
48488;DHT22;34289;48.572;13.378;2023-09-19T15:21:01;21.40;99.90
48488;DHT22;34289;48.572;13.378;2023-09-19T15:23:29;21.20;99.90
48488;DHT22;34289;48.572;13.378;2023-09-19T15:25:55;21.10;99.90
48488;DHT22;34289;48.572;13.378;2023-09-19T15:28:22;21.20;99.90
48488;DHT22;34289;48.572;13.378;2023-09-19T15:30:57;21.20;99.90
48488;DHT22;34289;48.572;13.378;2023-09-19T15:33:22;21.20;99.90
48488;DHT22;34289;48.572;13.378;2023-09-19T15:35:48;21.00;99.90
48488;DHT22;34289;48.572;13.378;2023-09-19T15:38:14;20.80;99.90
48488;DHT22;34289;48.572;13.378;2023-09-19T15:40:46;20.90;99.90
48488;DHT22;34289;48.572;13.378;2023-09-19T15:43:12;20.60;99.90
48488;DHT22;34289;48.572;13.378;2023-09-19T15:45:38;20.40;99.90
48488;DHT22;34289;48.572;13.378;2023-09-19T15:48:04;20.50;99.90
48488;DHT22;34289;48.572;13.378;2023-09-19T15:50:30;20.40;99.90
48488;DHT22;34289;48.572;13.378;2023-09-19T15:52:55;20.30;99.90
48488;DHT22;34289;48.572;13.378;2023-09-19T15:55:21;20.40;99.90
48488;DHT22;34289;48.572;13.378;2023-09-19T15:57:47;20.40;99.90
48488;DHT22;34289;48.572;13.378;2023-09-19T16:00:13;20.50;99.90
48488;DHT22;34289;48.572;13.378;2023-09-19T16:02:44;20.40;99.90
48488;DHT22;34289;48.572;13.378;2023-09-19T16:05:10;20.30;99.90
48488;DHT22;34289;48.572;13.378;2023-09-19T16:07:37;20.20;99.90